createdAt,value
2022-08-01T00:00:09.295Z,26.25
2022-08-01T00:02:39.124Z,26.28
2022-08-01T00:05:07.138Z,26.30
2022-08-01T00:07:36.979Z,26.41
2022-08-01T00:10:10.265Z,26.24
2022-08-01T00:12:37.260Z,26.04
2022-08-01T00:15:06.583Z,26.14
2022-08-01T00:17:33.478Z,26.04
2022-08-01T00:20:00.482Z,26.16
2022-08-01T00:22:27.170Z,26.24
2022-08-01T00:24:53.753Z,26.25
2022-08-01T00:27:20.337Z,26.13
2022-08-01T00:30:11.073Z,26.13
2022-08-01T00:32:33.640Z,26.03
2022-08-01T00:35:00.463Z,25.91
2022-08-01T00:37:27.634Z,25.98
2022-08-01T00:39:54.293Z,26.07
2022-08-01T00:42:21.675Z,25.97
2022-08-01T00:44:48.617Z,25.84
2022-08-01T00:47:16.721Z,25.85
2022-08-01T00:49:43.451Z,25.79
2022-08-01T00:52:10.994Z,25.79
2022-08-01T00:54:37.576Z,25.79
2022-08-01T00:57:04.985Z,25.86
2022-08-01T00:59:37.594Z,25.76
2022-08-01T01:02:14.627Z,25.60
2022-08-01T01:04:42.082Z,25.56
2022-08-01T01:07:31.723Z,25.55
2022-08-01T01:10:05.828Z,25.56
2022-08-01T01:12:46.973Z,25.44
2022-08-01T01:15:23.467Z,25.44
2022-08-01T01:17:56.457Z,25.30
2022-08-01T01:20:29.212Z,25.16
2022-08-01T01:23:07.739Z,25.17
2022-08-01T01:25:55.876Z,25.16
2022-08-01T01:28:35.266Z,25.02
2022-08-01T01:31:05.326Z,25.19
2022-08-01T01:33:34.327Z,25.19
2022-08-01T01:36:11.340Z,25.00
2022-08-01T01:38:43.911Z,24.89
2022-08-01T01:41:13.985Z,24.97
2022-08-01T01:43:41.611Z,25.08
2022-08-01T01:46:10.517Z,24.74
2022-08-01T01:48:39.769Z,24.88
2022-08-01T01:51:07.675Z,24.84
2022-08-01T01:53:36.606Z,24.88
2022-08-01T01:56:04.260Z,24.79
2022-08-01T01:58:33.987Z,24.70
2022-08-01T02:01:03.690Z,24.72
2022-08-01T02:03:32.666Z,24.76
2022-08-01T02:06:00.743Z,24.80
2022-08-01T02:08:30.659Z,24.62
2022-08-01T02:11:18.723Z,24.71
2022-08-01T02:14:09.179Z,24.66
2022-08-01T02:16:40.617Z,24.48
2022-08-01T02:19:08.711Z,24.39
2022-08-01T02:22:01.667Z,24.49
2022-08-01T02:24:45.893Z,24.33
2022-08-01T02:27:31.152Z,24.30
2022-08-01T02:30:02.198Z,24.25
2022-08-01T02:32:38.121Z,24.26
2022-08-01T02:35:08.785Z,24.19
2022-08-01T02:37:44.314Z,24.10
2022-08-01T02:40:14.499Z,24.16
2022-08-01T02:42:46.650Z,24.14
2022-08-01T02:45:14.560Z,24.13
2022-08-01T02:47:45.253Z,24.07
2022-08-01T02:50:15.227Z,24.02
2022-08-01T02:52:44.857Z,23.83
2022-08-01T02:55:12.398Z,23.94
2022-08-01T02:57:52.207Z,23.95
2022-08-01T03:00:24.606Z,23.77
2022-08-01T03:02:56.713Z,23.85
2022-08-01T03:05:26.058Z,23.70
2022-08-01T03:08:02.530Z,23.89
2022-08-01T03:10:32.985Z,23.83
2022-08-01T03:13:02.124Z,23.80
2022-08-01T03:15:32.363Z,23.88
2022-08-01T03:18:01.878Z,23.75
2022-08-01T03:20:31.049Z,23.53
2022-08-01T03:23:00.980Z,23.54
2022-08-01T03:25:30.057Z,23.46
2022-08-01T03:28:00.369Z,23.54
2022-08-01T03:30:29.041Z,23.47
2022-08-01T03:32:56.860Z,23.42
2022-08-01T03:35:27.182Z,23.45
2022-08-01T03:40:49.897Z,23.39
2022-08-01T03:43:27.667Z,23.45
2022-08-01T03:45:56.055Z,23.29
2022-08-01T03:48:30.759Z,23.16
2022-08-01T03:50:59.892Z,23.02
2022-08-01T03:53:31.009Z,22.87
2022-08-01T03:56:01.506Z,22.95
2022-08-01T03:58:29.833Z,23.05
2022-08-01T04:00:58.197Z,23.07
2022-08-01T04:03:27.893Z,23.09
2022-08-01T04:05:54.507Z,23.13
2022-08-01T04:08:21.307Z,22.93
2022-08-01T04:10:50.221Z,23.09
2022-08-01T04:13:17.201Z,22.98
2022-08-01T04:15:44.333Z,22.96
2022-08-01T04:18:10.951Z,22.93
2022-08-01T04:20:37.522Z,22.77
2022-08-01T04:23:05.028Z,22.79
2022-08-01T04:25:35.427Z,22.69
2022-08-01T04:28:05.121Z,22.67
2022-08-01T04:30:35.139Z,22.58
2022-08-01T04:33:03.507Z,22.55
2022-08-01T04:36:02.186Z,22.48
2022-08-01T04:38:24.114Z,22.65
2022-08-01T04:40:53.095Z,22.46
2022-08-01T04:43:19.885Z,22.34
2022-08-01T04:45:48.149Z,22.39
2022-08-01T04:48:18.159Z,22.31
2022-08-01T04:50:44.996Z,22.36
2022-08-01T04:53:17.820Z,22.35
2022-08-01T04:55:47.009Z,22.28
2022-08-01T04:58:18.297Z,22.29
2022-08-01T05:00:46.650Z,22.31
2022-08-01T05:03:13.630Z,22.30
2022-08-01T05:05:40.300Z,22.31
2022-08-01T05:08:07.273Z,22.10
2022-08-01T05:10:34.343Z,22.03
2022-08-01T05:13:03.253Z,22.17
2022-08-01T05:15:30.090Z,22.12
2022-08-01T05:17:57.565Z,22.03
2022-08-01T05:20:24.197Z,22.01
2022-08-01T05:22:50.790Z,22.04
2022-08-01T05:25:20.662Z,21.93
2022-08-01T05:28:05.367Z,22.09
2022-08-01T05:30:32.702Z,22.06
2022-08-01T05:32:59.198Z,22.04
2022-08-01T05:35:48.497Z,22.06
2022-08-01T05:38:14.810Z,21.84
2022-08-01T05:40:41.785Z,21.80
2022-08-01T05:43:08.537Z,21.62
2022-08-01T05:45:35.098Z,21.78
2022-08-01T05:48:01.857Z,22.04
2022-08-01T05:50:28.481Z,22.08
2022-08-01T05:52:55.046Z,21.88
2022-08-01T05:55:21.969Z,21.71
2022-08-01T05:57:48.581Z,21.97
2022-08-01T06:00:16.420Z,21.85
2022-08-01T06:02:44.310Z,21.90
2022-08-01T06:05:13.558Z,22.11
2022-08-01T06:07:41.129Z,22.20
2022-08-01T06:10:09.044Z,22.42
2022-08-01T06:12:37.154Z,22.11
2022-08-01T06:15:05.624Z,22.27
2022-08-01T06:17:32.170Z,22.44
2022-08-01T06:19:58.768Z,22.41
2022-08-01T06:22:25.304Z,22.14
2022-08-01T06:24:55.295Z,22.19
2022-08-01T06:27:23.005Z,21.73
2022-08-01T06:29:51.272Z,22.13
2022-08-01T06:32:27.547Z,22.04
2022-08-01T06:34:56.206Z,22.04
2022-08-01T06:37:23.610Z,22.45
2022-08-01T06:39:50.968Z,22.58
2022-08-01T06:42:18.300Z,22.13
2022-08-01T06:44:45.067Z,21.96
2022-08-01T06:47:11.739Z,22.38
2022-08-01T06:49:38.519Z,22.54
2022-08-01T06:52:05.605Z,22.60
2022-08-01T06:54:32.425Z,22.43
2022-08-01T06:56:59.061Z,22.42
2022-08-01T06:59:25.681Z,22.56
2022-08-01T07:01:53.461Z,22.58
2022-08-01T07:04:20.041Z,22.59
2022-08-01T07:06:46.577Z,22.74
2022-08-01T07:09:14.671Z,22.59
2022-08-01T07:11:41.887Z,22.69
2022-08-01T07:14:08.535Z,22.57
2022-08-01T07:16:35.209Z,22.66
2022-08-01T07:19:01.798Z,22.90
2022-08-01T07:21:38.519Z,22.87
2022-08-01T07:24:13.957Z,23.15
2022-08-01T07:26:53.516Z,22.99
2022-08-01T07:29:26.089Z,22.92
2022-08-01T07:31:57.542Z,22.75
2022-08-01T07:34:26.605Z,23.00
2022-08-01T07:36:53.931Z,23.06
2022-08-01T07:39:20.990Z,23.13
2022-08-01T07:42:07.373Z,23.10
2022-08-01T07:44:34.695Z,23.21
2022-08-01T07:47:01.241Z,23.35
2022-08-01T07:49:28.168Z,23.44
2022-08-01T07:52:04.191Z,23.33
2022-08-01T07:54:34.816Z,23.30
2022-08-01T07:57:02.856Z,23.43
2022-08-01T07:59:29.410Z,23.39
2022-08-01T08:01:56.312Z,23.70
2022-08-01T08:04:26.356Z,23.62
2022-08-01T08:06:55.247Z,23.50
2022-08-01T08:09:22.152Z,23.72
2022-08-01T08:11:48.781Z,23.77
2022-08-01T08:14:16.702Z,23.74
2022-08-01T08:16:44.023Z,23.98
2022-08-01T08:19:11.292Z,24.04
2022-08-01T08:21:38.839Z,24.03
2022-08-01T08:24:26.600Z,24.10
2022-08-01T08:27:01.333Z,24.18
2022-08-01T08:29:30.672Z,24.17
2022-08-01T08:31:58.887Z,23.99
2022-08-01T08:34:27.804Z,24.17
2022-08-01T08:36:56.987Z,24.20
2022-08-01T08:39:24.018Z,24.21
2022-08-01T08:41:50.981Z,24.36
2022-08-01T08:44:19.327Z,24.51
2022-08-01T08:46:48.568Z,24.55
2022-08-01T08:49:22.998Z,24.61
2022-08-01T08:51:51.491Z,24.59
2022-08-01T08:54:21.904Z,24.50
2022-08-01T08:56:59.849Z,24.55
2022-08-01T08:59:28.203Z,24.71
2022-08-01T09:01:55.083Z,24.88
2022-08-01T09:04:25.870Z,25.02
2022-08-01T09:06:55.279Z,24.95
2022-08-01T09:09:25.520Z,24.77
2022-08-01T09:11:57.196Z,24.95
2022-08-01T09:14:26.659Z,25.12
2022-08-01T09:17:09.499Z,25.22
2022-08-01T09:19:43.408Z,25.19
2022-08-01T09:22:11.215Z,25.40
2022-08-01T09:24:38.726Z,25.31
2022-08-01T09:27:25.176Z,25.57
2022-08-01T09:30:01.193Z,25.55
2022-08-01T09:32:34.674Z,25.59
2022-08-01T09:35:20.545Z,25.72
2022-08-01T09:37:48.514Z,25.77
2022-08-01T09:40:15.143Z,25.80
2022-08-01T09:42:42.407Z,25.76
2022-08-01T09:45:09.373Z,25.75
2022-08-01T09:47:45.615Z,25.85
2022-08-01T09:50:12.421Z,25.89
2022-08-01T09:52:41.002Z,26.06
2022-08-01T09:55:08.907Z,25.89
2022-08-01T09:57:35.696Z,26.36
2022-08-01T10:00:04.809Z,26.09
2022-08-01T10:02:36.697Z,26.18
2022-08-01T10:05:08.486Z,26.25
2022-08-01T10:07:42.695Z,26.41
2022-08-01T10:10:16.070Z,26.51
2022-08-01T10:12:45.109Z,26.83
2022-08-01T10:15:16.235Z,26.79
2022-08-01T10:17:57.278Z,26.57
2022-08-01T10:20:32.212Z,26.58
2022-08-01T10:23:05.947Z,26.88
2022-08-01T10:25:43.809Z,26.92
2022-08-01T10:28:21.669Z,26.91
2022-08-01T10:30:50.826Z,26.92
2022-08-01T10:33:50.612Z,26.85
2022-08-01T10:36:08.542Z,26.80
2022-08-01T10:38:37.354Z,26.87
2022-08-01T10:41:08.661Z,26.80
2022-08-01T10:43:36.841Z,27.10
2022-08-01T10:46:05.765Z,27.32
2022-08-01T10:48:52.603Z,27.28
2022-08-01T10:51:51.287Z,27.36
2022-08-01T10:54:11.742Z,27.49
2022-08-01T10:56:48.747Z,27.49
2022-08-01T10:59:49.128Z,27.52
2022-08-01T11:02:12.406Z,27.62
2022-08-01T11:04:41.725Z,27.62
2022-08-01T11:07:25.679Z,27.71
2022-08-01T11:10:26.802Z,27.48
2022-08-01T11:12:53.875Z,27.71
2022-08-01T11:15:29.056Z,27.61
2022-08-01T11:18:00.604Z,27.91
2022-08-01T11:20:41.526Z,27.99
2022-08-01T11:23:08.946Z,28.13
2022-08-01T11:26:05.248Z,28.02
2022-08-01T11:28:33.900Z,28.03
2022-08-01T11:31:10.941Z,27.94
2022-08-01T11:33:47.148Z,28.13
2022-08-01T11:36:55.783Z,28.27
2022-08-01T11:39:13.222Z,28.20
2022-08-01T11:41:42.085Z,28.25
2022-08-01T11:44:15.924Z,28.36
2022-08-01T11:46:56.455Z,28.62
2022-08-01T11:49:39.401Z,28.85
2022-08-01T11:52:12.236Z,28.89
2022-08-01T11:54:46.094Z,28.84
2022-08-01T11:57:14.044Z,28.85
2022-08-01T11:59:59.877Z,29.03
2022-08-01T12:02:33.238Z,29.00
2022-08-01T12:05:05.844Z,29.12
2022-08-01T12:07:39.177Z,29.30
2022-08-01T12:10:12.054Z,29.33
2022-08-01T12:12:45.220Z,29.41
2022-08-01T12:15:12.103Z,29.23
2022-08-01T12:17:45.824Z,29.50
2022-08-01T12:20:25.722Z,29.30
2022-08-01T12:22:56.696Z,29.55
2022-08-01T12:25:24.180Z,29.68
2022-08-01T12:27:55.986Z,29.73
2022-08-01T12:30:25.018Z,29.45
2022-08-01T12:32:53.189Z,29.58
2022-08-01T12:35:24.851Z,29.52
2022-08-01T12:37:53.710Z,29.67
2022-08-01T12:40:32.841Z,29.75
2022-08-01T12:43:09.002Z,29.62
2022-08-01T12:45:56.505Z,29.54
2022-08-01T12:48:25.469Z,29.82
2022-08-01T12:50:54.240Z,29.89
2022-08-01T12:53:22.260Z,29.76
2022-08-01T12:55:59.376Z,29.84
2022-08-01T12:58:33.255Z,29.94
2022-08-01T13:01:07.296Z,30.07
2022-08-01T13:03:34.172Z,30.31
2022-08-01T13:06:01.381Z,30.15
2022-08-01T13:08:31.968Z,29.88
2022-08-01T13:11:06.342Z,29.76
2022-08-01T13:13:45.295Z,30.05
2022-08-01T13:16:27.885Z,30.25
2022-08-01T13:19:00.140Z,30.26
2022-08-01T13:21:52.295Z,30.38
2022-08-01T13:24:25.005Z,30.71
2022-08-01T13:26:53.040Z,30.47
2022-08-01T13:29:22.022Z,30.70
2022-08-01T13:31:48.940Z,30.63
2022-08-01T13:34:16.680Z,30.74
2022-08-01T13:36:49.068Z,30.63
2022-08-01T13:39:34.897Z,30.89
2022-08-01T13:42:01.545Z,30.78
2022-08-01T13:44:28.552Z,30.70
2022-08-01T13:46:55.123Z,30.71
2022-08-01T13:49:22.550Z,30.60
2022-08-01T13:51:51.021Z,30.59
2022-08-01T13:54:18.334Z,30.95
2022-08-01T13:56:45.802Z,30.97
2022-08-01T13:59:12.830Z,31.06
2022-08-01T14:01:39.826Z,31.08
2022-08-01T14:04:06.624Z,30.97
2022-08-01T14:06:33.469Z,31.04
2022-08-01T14:09:00.076Z,31.20
2022-08-01T14:11:28.514Z,31.26
2022-08-01T14:14:00.542Z,31.20
2022-08-01T14:16:27.169Z,31.15
2022-08-01T14:18:53.694Z,31.20
2022-08-01T14:21:22.408Z,31.28
2022-08-01T14:23:48.998Z,31.25
2022-08-01T14:26:16.324Z,31.07
2022-08-01T14:28:42.905Z,31.17
2022-08-01T14:31:09.527Z,31.47
2022-08-01T14:33:36.212Z,31.67
2022-08-01T14:36:29.582Z,31.57
2022-08-01T14:38:50.330Z,31.74
2022-08-01T14:41:17.086Z,31.76
2022-08-01T14:43:44.192Z,31.80
2022-08-01T14:46:11.199Z,31.68
2022-08-01T14:48:37.851Z,31.59
2022-08-01T14:51:05.194Z,31.48
2022-08-01T14:53:35.913Z,31.69
2022-08-01T14:56:06.506Z,31.79
2022-08-01T14:58:34.282Z,32.03
2022-08-01T15:01:01.591Z,32.17
2022-08-01T15:03:28.308Z,32.15
2022-08-01T15:05:54.945Z,32.14
2022-08-01T15:08:21.892Z,32.31
2022-08-01T15:10:48.694Z,32.15
2022-08-01T15:13:15.291Z,32.51
2022-08-01T15:15:41.912Z,32.46
2022-08-01T15:18:08.436Z,32.60
2022-08-01T15:20:35.028Z,33.04
2022-08-01T15:23:01.605Z,33.18
2022-08-01T15:25:41.765Z,33.30
2022-08-01T15:28:12.522Z,33.05
2022-08-01T15:30:39.971Z,33.69
2022-08-01T15:33:06.711Z,33.47
2022-08-01T15:35:33.817Z,33.85
2022-08-01T15:38:00.747Z,33.36
2022-08-01T15:40:29.328Z,33.43
2022-08-01T15:42:56.121Z,33.41
2022-08-01T15:45:46.363Z,33.40
2022-08-01T15:48:10.249Z,33.69
2022-08-01T15:50:39.106Z,34.11
2022-08-01T15:53:07.275Z,34.15
2022-08-01T15:55:37.096Z,34.39
2022-08-01T15:58:05.793Z,34.25
2022-08-01T16:00:36.086Z,33.64
2022-08-01T16:03:07.522Z,34.16
2022-08-01T16:05:41.077Z,34.23
2022-08-01T16:08:13.408Z,34.54
2022-08-01T16:10:40.040Z,34.16
2022-08-01T16:13:07.678Z,34.15
2022-08-01T16:15:36.994Z,34.34
2022-08-01T16:18:06.059Z,34.68
2022-08-01T16:20:33.163Z,34.30
2022-08-01T16:22:59.991Z,33.83
2022-08-01T16:25:26.751Z,33.98
2022-08-01T16:27:54.126Z,34.08
2022-08-01T16:30:20.706Z,34.14
2022-08-01T16:32:51.568Z,34.67
2022-08-01T16:35:24.455Z,34.45
2022-08-01T16:37:57.924Z,34.80
2022-08-01T16:40:24.492Z,34.30
2022-08-01T16:42:53.292Z,35.00
2022-08-01T16:45:25.051Z,34.55
2022-08-01T16:47:51.802Z,35.23
2022-08-01T16:50:18.704Z,34.46
2022-08-01T16:52:55.185Z,34.84
2022-08-01T16:55:25.338Z,35.05
2022-08-01T16:57:52.022Z,34.96
2022-08-01T17:00:22.766Z,34.58
2022-08-01T17:02:49.447Z,34.93
2022-08-01T17:05:16.152Z,35.13
2022-08-01T17:07:44.227Z,35.12
2022-08-01T17:10:11.769Z,35.13
2022-08-01T17:12:39.542Z,34.95
2022-08-01T17:15:07.610Z,34.99
2022-08-01T17:17:34.287Z,34.88
2022-08-01T17:20:00.881Z,35.12
2022-08-01T17:22:27.576Z,35.29
2022-08-01T17:24:54.126Z,34.81
2022-08-01T17:27:20.996Z,35.10
2022-08-01T17:29:47.671Z,34.73
2022-08-01T17:32:14.349Z,34.57
2022-08-01T17:34:42.298Z,34.62
2022-08-01T17:37:10.421Z,34.67
2022-08-01T17:39:39.004Z,34.60
2022-08-01T17:42:07.493Z,35.19
2022-08-01T17:44:34.034Z,34.45
2022-08-01T17:47:00.620Z,35.02
2022-08-01T17:49:53.427Z,35.31
2022-08-01T17:52:14.653Z,35.01
2022-08-01T17:54:41.627Z,34.79
2022-08-01T17:57:08.736Z,34.51
2022-08-01T17:59:35.741Z,34.51
2022-08-01T18:02:02.385Z,34.49
2022-08-01T18:04:31.428Z,34.31
2022-08-01T18:07:00.835Z,34.34
2022-08-01T18:09:32.668Z,35.11
2022-08-01T18:12:01.942Z,34.91
2022-08-01T18:14:40.057Z,34.60
2022-08-01T18:17:08.628Z,34.49
2022-08-01T18:19:38.816Z,35.13
2022-08-01T18:22:14.489Z,35.04
2022-08-01T18:24:53.542Z,34.25
2022-08-01T18:27:20.430Z,33.80
2022-08-01T18:29:48.592Z,33.58
2022-08-01T18:32:15.673Z,33.59
2022-08-01T18:34:42.293Z,33.47
2022-08-01T18:37:11.410Z,33.10
2022-08-01T18:39:39.906Z,33.24
2022-08-01T18:42:07.091Z,33.45
2022-08-01T18:44:33.742Z,32.95
2022-08-01T18:47:01.185Z,32.95
2022-08-01T18:49:27.777Z,32.99
2022-08-01T18:51:54.439Z,32.75
2022-08-01T18:54:21.213Z,32.72
2022-08-01T18:56:47.844Z,32.30
2022-08-01T18:59:15.224Z,32.24
2022-08-01T19:01:42.045Z,32.23
2022-08-01T19:04:09.141Z,32.11
2022-08-01T19:06:36.113Z,32.06
2022-08-01T19:09:03.895Z,31.98
2022-08-01T19:11:33.093Z,31.84
2022-08-01T19:14:00.297Z,31.72
2022-08-01T19:16:27.909Z,31.74
2022-08-01T19:18:54.965Z,31.69
2022-08-01T19:21:25.722Z,31.63
2022-08-01T19:24:10.643Z,31.54
2022-08-01T19:26:40.252Z,31.48
2022-08-01T19:29:24.521Z,31.44
2022-08-01T19:32:03.694Z,31.42
2022-08-01T19:34:30.375Z,31.40
2022-08-01T19:36:58.062Z,31.37
2022-08-01T19:39:27.219Z,31.26
2022-08-01T19:41:55.838Z,31.28
2022-08-01T19:44:24.854Z,31.23
2022-08-01T19:46:53.030Z,31.22
2022-08-01T19:49:24.127Z,31.05
2022-08-01T19:51:55.306Z,30.98
2022-08-01T19:54:29.369Z,30.98
2022-08-01T19:56:59.655Z,30.98
2022-08-01T19:59:27.384Z,30.91
2022-08-01T20:01:54.652Z,30.84
2022-08-01T20:04:21.911Z,30.84
2022-08-01T20:06:48.772Z,30.84
2022-08-01T20:09:15.376Z,30.85
2022-08-01T20:11:47.833Z,30.72
2022-08-01T20:14:17.712Z,30.65
2022-08-01T20:16:44.991Z,30.66
2022-08-01T20:19:12.679Z,30.50
2022-08-01T20:21:43.107Z,30.48
2022-08-01T20:24:29.386Z,30.54
2022-08-01T20:27:00.838Z,30.49
2022-08-01T20:29:29.751Z,30.47
2022-08-01T20:31:57.732Z,30.41
2022-08-01T20:34:25.102Z,30.39
2022-08-01T20:36:56.797Z,30.40
2022-08-01T20:39:24.494Z,30.38
2022-08-01T20:42:00.096Z,30.37
2022-08-01T20:44:27.719Z,30.39
2022-08-01T20:46:54.472Z,30.35
2022-08-01T20:49:26.503Z,30.30
2022-08-01T20:51:53.789Z,30.20
2022-08-01T20:54:20.646Z,30.17
2022-08-01T20:56:59.514Z,30.14
2022-08-01T20:59:55.144Z,30.18
2022-08-01T21:03:02.699Z,30.09
2022-08-01T21:05:37.744Z,30.10
2022-08-01T21:08:21.747Z,29.96
2022-08-01T21:10:56.948Z,29.92
2022-08-01T21:13:40.615Z,29.85
2022-08-01T21:16:22.400Z,29.81
2022-08-01T21:19:18.580Z,29.76
2022-08-01T21:21:54.394Z,29.76
2022-08-01T21:24:26.749Z,29.72
2022-08-01T21:26:53.617Z,29.68
2022-08-01T21:29:22.753Z,29.61
2022-08-01T21:32:11.600Z,29.58
2022-08-01T21:34:40.406Z,29.52
2022-08-01T21:37:08.887Z,29.49
2022-08-01T21:39:39.335Z,29.47
2022-08-01T21:42:09.358Z,29.49
2022-08-01T21:44:39.643Z,29.36
2022-08-01T21:47:06.736Z,29.41
2022-08-01T21:49:40.604Z,29.44
2022-08-01T21:52:18.354Z,29.24
2022-08-01T21:55:00.722Z,29.13
2022-08-01T21:57:36.230Z,29.09
2022-08-01T22:00:12.640Z,29.03
2022-08-01T22:03:07.895Z,29.08
2022-08-01T22:05:50.131Z,29.15
2022-08-01T22:08:33.933Z,29.02
2022-08-01T22:11:04.795Z,28.87
2022-08-01T22:13:32.727Z,28.77
2022-08-01T22:15:59.613Z,28.75
2022-08-01T22:18:28.371Z,28.72
2022-08-01T22:20:55.875Z,28.76
2022-08-01T22:23:23.271Z,28.80
2022-08-01T22:25:53.188Z,28.65
2022-08-01T22:28:20.715Z,28.61
2022-08-01T22:30:49.704Z,28.71
2022-08-01T22:33:17.886Z,28.53
2022-08-01T22:35:49.757Z,28.45
2022-08-01T22:38:20.862Z,28.56
2022-08-01T22:40:53.972Z,28.46
2022-08-01T22:43:25.563Z,28.41
2022-08-01T22:46:04.944Z,28.46
2022-08-01T22:48:53.725Z,28.44
2022-08-01T22:51:28.341Z,28.40
2022-08-01T22:54:01.389Z,28.40
2022-08-01T22:56:29.697Z,28.38
2022-08-01T22:58:59.527Z,28.30
2022-08-01T23:01:28.558Z,28.33
2022-08-01T23:03:57.812Z,28.43
2022-08-01T23:06:35.898Z,28.33
2022-08-01T23:09:03.838Z,28.08
2022-08-01T23:11:30.534Z,28.10
2022-08-01T23:14:00.297Z,28.12
2022-08-01T23:16:29.602Z,28.08
2022-08-01T23:18:59.957Z,28.00
2022-08-01T23:21:31.672Z,27.98
2022-08-01T23:23:58.885Z,27.97
2022-08-01T23:26:28.998Z,27.99
2022-08-01T23:28:57.151Z,28.04
2022-08-01T23:32:00.578Z,28.00
2022-08-01T23:34:11.025Z,27.94
2022-08-01T23:36:39.224Z,27.83
2022-08-01T23:39:05.818Z,27.75
2022-08-01T23:41:34.251Z,27.73
2022-08-01T23:44:18.917Z,27.76
2022-08-01T23:46:45.979Z,27.77
2022-08-01T23:49:12.539Z,27.50
2022-08-01T23:51:39.313Z,27.64
2022-08-01T23:54:06.077Z,27.66
2022-08-01T23:56:32.717Z,27.65
2022-08-01T23:59:00.028Z,27.65
